sensor_id;sensor_type;location;lat;lon;timestamp;pressure;altitude;pressure_sealevel;temperature;humidity
79639;BME280;69114;49.108;8.280;2023-04-28T00:00:52;100267.72;;;11.90;65.54
79639;BME280;69114;49.108;8.280;2023-04-28T00:03:18;100269.03;;;11.84;67.00
79639;BME280;69114;49.108;8.280;2023-04-28T00:05:46;100251.72;;;11.82;66.62
79639;BME280;69114;49.108;8.280;2023-04-28T00:08:11;100248.00;;;11.86;67.00
79639;BME280;69114;49.108;8.280;2023-04-28T00:10:36;100251.13;;;11.85;68.07
79639;BME280;69114;49.108;8.280;2023-04-28T00:13:02;100242.25;;;11.83;70.02
79639;BME280;69114;49.108;8.280;2023-04-28T00:15:27;100239.16;;;11.84;68.32
79639;BME280;69114;49.108;8.280;2023-04-28T00:17:53;100231.44;;;11.90;66.46
79639;BME280;69114;49.108;8.280;2023-04-28T00:20:18;100229.94;;;11.84;66.37
79639;BME280;69114;49.108;8.280;2023-04-28T00:22:43;100226.59;;;11.73;66.38
79639;BME280;69114;49.108;8.280;2023-04-28T00:25:09;100224.25;;;11.66;70.92
79639;BME280;69114;49.108;8.280;2023-04-28T00:27:34;100212.09;;;11.62;69.09
79639;BME280;69114;49.108;8.280;2023-04-28T00:30:00;100214.56;;;11.55;69.15
79639;BME280;69114;49.108;8.280;2023-04-28T00:32:26;100214.34;;;11.51;70.45
79639;BME280;69114;49.108;8.280;2023-04-28T00:34:51;100217.78;;;11.48;71.73
79639;BME280;69114;49.108;8.280;2023-04-28T00:37:18;100229.22;;;11.38;72.65
79639;BME280;69114;49.108;8.280;2023-04-28T00:39:43;100227.91;;;11.36;70.84
79639;BME280;69114;49.108;8.280;2023-04-28T00:42:12;100219.03;;;11.34;71.87
79639;BME280;69114;49.108;8.280;2023-04-28T00:44:37;100212.28;;;11.26;75.37
79639;BME280;69114;49.108;8.280;2023-04-28T00:47:03;100206.66;;;11.17;75.71
79639;BME280;69114;49.108;8.280;2023-04-28T00:49:29;100203.13;;;11.03;76.36
79639;BME280;69114;49.108;8.280;2023-04-28T00:51:55;100197.75;;;11.07;75.68
79639;BME280;69114;49.108;8.280;2023-04-28T00:54:21;100195.09;;;11.01;78.87
79639;BME280;69114;49.108;8.280;2023-04-28T00:56:47;100190.41;;;10.88;75.50
79639;BME280;69114;49.108;8.280;2023-04-28T00:59:12;100190.91;;;10.90;79.58
79639;BME280;69114;49.108;8.280;2023-04-28T01:01:38;100197.19;;;10.73;77.04
79639;BME280;69114;49.108;8.280;2023-04-28T01:04:03;100205.97;;;10.67;79.10
79639;BME280;69114;49.108;8.280;2023-04-28T01:06:29;100205.16;;;10.66;78.36
79639;BME280;69114;49.108;8.280;2023-04-28T01:08:55;100201.63;;;10.74;79.52
79639;BME280;69114;49.108;8.280;2023-04-28T01:11:21;100190.34;;;10.80;80.07
79639;BME280;69114;49.108;8.280;2023-04-28T01:13:46;100177.03;;;10.76;80.79
79639;BME280;69114;49.108;8.280;2023-04-28T01:16:12;100172.63;;;10.75;79.16
79639;BME280;69114;49.108;8.280;2023-04-28T01:18:37;100180.50;;;10.82;78.98
79639;BME280;69114;49.108;8.280;2023-04-28T01:21:05;100183.19;;;10.87;76.26
79639;BME280;69114;49.108;8.280;2023-04-28T01:23:30;100182.72;;;10.94;77.12
79639;BME280;69114;49.108;8.280;2023-04-28T01:25:56;100174.50;;;10.89;76.72
79639;BME280;69114;49.108;8.280;2023-04-28T01:28:22;100170.56;;;10.90;76.37
79639;BME280;69114;49.108;8.280;2023-04-28T01:30:47;100175.00;;;10.91;76.42
79639;BME280;69114;49.108;8.280;2023-04-28T01:33:13;100176.22;;;10.76;77.98
79639;BME280;69114;49.108;8.280;2023-04-28T01:35:38;100181.47;;;10.77;76.50
79639;BME280;69114;49.108;8.280;2023-04-28T01:38:03;100184.25;;;10.77;77.36
79639;BME280;69114;49.108;8.280;2023-04-28T01:40:29;100177.69;;;10.73;77.55
79639;BME280;69114;49.108;8.280;2023-04-28T01:42:54;100185.78;;;10.61;79.54
79639;BME280;69114;49.108;8.280;2023-04-28T01:45:19;100190.22;;;10.40;80.35
79639;BME280;69114;49.108;8.280;2023-04-28T01:47:45;100197.34;;;10.18;79.59
79639;BME280;69114;49.108;8.280;2023-04-28T01:50:10;100193.97;;;10.08;81.36
79639;BME280;69114;49.108;8.280;2023-04-28T01:52:35;100174.78;;;10.06;81.71
79639;BME280;69114;49.108;8.280;2023-04-28T01:55:01;100174.41;;;9.99;81.61
79639;BME280;69114;49.108;8.280;2023-04-28T01:57:27;100184.00;;;9.93;82.84
79639;BME280;69114;49.108;8.280;2023-04-28T01:59:53;100176.03;;;10.00;82.72
79639;BME280;69114;49.108;8.280;2023-04-28T02:02:18;100178.94;;;9.95;82.75
79639;BME280;69114;49.108;8.280;2023-04-28T02:04:44;100184.13;;;9.88;84.77
79639;BME280;69114;49.108;8.280;2023-04-28T02:07:09;100184.13;;;9.88;85.30
79639;BME280;69114;49.108;8.280;2023-04-28T02:09:34;100184.38;;;10.00;84.54
79639;BME280;69114;49.108;8.280;2023-04-28T02:12:00;100181.59;;;10.00;83.65
79639;BME280;69114;49.108;8.280;2023-04-28T02:14:27;100180.19;;;9.89;84.91
79639;BME280;69114;49.108;8.280;2023-04-28T02:16:52;100179.47;;;9.97;83.60
79639;BME280;69114;49.108;8.280;2023-04-28T02:19:17;100195.25;;;9.88;84.36
79639;BME280;69114;49.108;8.280;2023-04-28T02:21:43;100187.50;;;9.98;83.51
79639;BME280;69114;49.108;8.280;2023-04-28T02:24:08;100208.84;;;9.75;85.65
79639;BME280;69114;49.108;8.280;2023-04-28T02:26:33;100218.94;;;9.71;85.04
79639;BME280;69114;49.108;8.280;2023-04-28T02:28:59;100206.06;;;9.75;83.53
79639;BME280;69114;49.108;8.280;2023-04-28T02:31:25;100207.59;;;9.82;84.30
79639;BME280;69114;49.108;8.280;2023-04-28T02:33:50;100197.50;;;9.86;83.62
79639;BME280;69114;49.108;8.280;2023-04-28T02:36:16;100194.94;;;9.89;83.99
79639;BME280;69114;49.108;8.280;2023-04-28T02:38:41;100188.75;;;9.92;84.23
79639;BME280;69114;49.108;8.280;2023-04-28T02:41:07;100176.69;;;9.97;83.64
79639;BME280;69114;49.108;8.280;2023-04-28T02:43:36;100179.97;;;9.99;83.69
79639;BME280;69114;49.108;8.280;2023-04-28T02:46:02;100176.75;;;10.06;83.13
79639;BME280;69114;49.108;8.280;2023-04-28T02:48:29;100177.47;;;10.11;82.71
79639;BME280;69114;49.108;8.280;2023-04-28T02:50:54;100168.16;;;10.16;82.50
79639;BME280;69114;49.108;8.280;2023-04-28T02:53:21;100155.59;;;10.18;85.11
79639;BME280;69114;49.108;8.280;2023-04-28T02:55:46;100176.47;;;10.07;84.35
79639;BME280;69114;49.108;8.280;2023-04-28T02:58:12;100177.38;;;10.03;84.86
79639;BME280;69114;49.108;8.280;2023-04-28T03:00:37;100175.81;;;10.10;85.64
79639;BME280;69114;49.108;8.280;2023-04-28T03:03:03;100173.03;;;10.10;84.46
79639;BME280;69114;49.108;8.280;2023-04-28T03:05:28;100161.19;;;10.05;85.10
79639;BME280;69114;49.108;8.280;2023-04-28T03:07:53;100162.66;;;10.02;85.49
79639;BME280;69114;49.108;8.280;2023-04-28T03:10:19;100174.09;;;9.87;86.33
79639;BME280;69114;49.108;8.280;2023-04-28T03:12:44;100162.47;;;9.85;86.06
79639;BME280;69114;49.108;8.280;2023-04-28T03:15:10;100161.63;;;9.98;87.33
79639;BME280;69114;49.108;8.280;2023-04-28T03:17:35;100165.56;;;9.97;84.72
79639;BME280;69114;49.108;8.280;2023-04-28T03:20:03;100160.59;;;9.94;84.43
79639;BME280;69114;49.108;8.280;2023-04-28T03:22:29;100151.44;;;9.93;85.08
79639;BME280;69114;49.108;8.280;2023-04-28T03:24:54;100152.59;;;9.92;85.38
79639;BME280;69114;49.108;8.280;2023-04-28T03:27:20;100155.66;;;9.91;85.86
79639;BME280;69114;49.108;8.280;2023-04-28T03:29:46;100155.44;;;9.87;86.12
79639;BME280;69114;49.108;8.280;2023-04-28T03:32:11;100153.19;;;9.89;86.70
79639;BME280;69114;49.108;8.280;2023-04-28T03:34:37;100145.16;;;9.88;86.64
79639;BME280;69114;49.108;8.280;2023-04-28T03:37:02;100149.69;;;9.97;87.78
79639;BME280;69114;49.108;8.280;2023-04-28T03:39:27;100138.84;;;9.96;86.30
79639;BME280;69114;49.108;8.280;2023-04-28T03:41:53;100132.66;;;9.99;87.29
79639;BME280;69114;49.108;8.280;2023-04-28T03:44:18;100136.59;;;9.98;86.48
79639;BME280;69114;49.108;8.280;2023-04-28T03:46:43;100135.03;;;9.92;86.46
79639;BME280;69114;49.108;8.280;2023-04-28T03:49:09;100138.56;;;9.97;88.54
79639;BME280;69114;49.108;8.280;2023-04-28T03:51:34;100135.66;;;10.03;87.02
79639;BME280;69114;49.108;8.280;2023-04-28T03:53:59;100122.22;;;10.05;87.26
79639;BME280;69114;49.108;8.280;2023-04-28T03:56:25;100129.75;;;10.04;85.96
79639;BME280;69114;49.108;8.280;2023-04-28T03:58:50;100126.97;;;10.04;86.32
79639;BME280;69114;49.108;8.280;2023-04-28T04:01:15;100124.06;;;10.09;86.26
79639;BME280;69114;49.108;8.280;2023-04-28T04:03:41;100128.00;;;10.08;85.75
79639;BME280;69114;49.108;8.280;2023-04-28T04:06:07;100117.38;;;10.10;86.53
79639;BME280;69114;49.108;8.280;2023-04-28T04:08:32;100118.31;;;10.06;86.17
79639;BME280;69114;49.108;8.280;2023-04-28T04:10:57;100111.44;;;10.03;86.54
79639;BME280;69114;49.108;8.280;2023-04-28T04:13:23;100119.56;;;9.99;87.07
79639;BME280;69114;49.108;8.280;2023-04-28T04:15:49;100117.72;;;9.95;87.40
79639;BME280;69114;49.108;8.280;2023-04-28T04:18:15;100125.97;;;10.00;87.81
79639;BME280;69114;49.108;8.280;2023-04-28T04:20:40;100125.34;;;10.03;86.38
79639;BME280;69114;49.108;8.280;2023-04-28T04:23:05;100122.34;;;9.99;85.26
79639;BME280;69114;49.108;8.280;2023-04-28T04:25:31;100105.22;;;10.06;86.47
79639;BME280;69114;49.108;8.280;2023-04-28T04:27:57;100103.91;;;10.04;84.98
79639;BME280;69114;49.108;8.280;2023-04-28T04:30:23;100096.88;;;10.06;84.42
79639;BME280;69114;49.108;8.280;2023-04-28T04:32:48;100097.72;;;10.07;84.61
79639;BME280;69114;49.108;8.280;2023-04-28T04:35:13;100096.50;;;9.99;84.45
79639;BME280;69114;49.108;8.280;2023-04-28T04:37:39;100102.44;;;10.06;84.49
79639;BME280;69114;49.108;8.280;2023-04-28T04:40:05;100104.59;;;10.09;84.22
79639;BME280;69114;49.108;8.280;2023-04-28T04:42:31;100102.00;;;10.13;83.80
79639;BME280;69114;49.108;8.280;2023-04-28T04:44:56;100105.97;;;10.20;83.23
79639;BME280;69114;49.108;8.280;2023-04-28T04:47:21;100094.84;;;10.20;83.84
79639;BME280;69114;49.108;8.280;2023-04-28T04:49:48;100103.72;;;10.22;82.15
79639;BME280;69114;49.108;8.280;2023-04-28T04:52:17;100092.91;;;10.21;83.44
79639;BME280;69114;49.108;8.280;2023-04-28T04:54:43;100102.59;;;10.23;85.68
79639;BME280;69114;49.108;8.280;2023-04-28T04:57:08;100117.66;;;10.22;83.32
79639;BME280;69114;49.108;8.280;2023-04-28T04:59:33;100113.84;;;10.18;84.23
79639;BME280;69114;49.108;8.280;2023-04-28T05:01:59;100110.44;;;10.21;84.69
79639;BME280;69114;49.108;8.280;2023-04-28T05:04:24;100115.47;;;10.19;84.48
79639;BME280;69114;49.108;8.280;2023-04-28T05:06:50;100117.97;;;10.21;84.32
79639;BME280;69114;49.108;8.280;2023-04-28T05:09:15;100115.38;;;10.24;82.80
79639;BME280;69114;49.108;8.280;2023-04-28T05:11:41;100120.75;;;10.21;84.13
79639;BME280;69114;49.108;8.280;2023-04-28T05:14:06;100120.75;;;10.21;83.45
79639;BME280;69114;49.108;8.280;2023-04-28T05:16:31;100125.69;;;10.24;83.75
79639;BME280;69114;49.108;8.280;2023-04-28T05:18:57;100119.28;;;10.23;82.44
79639;BME280;69114;49.108;8.280;2023-04-28T05:21:22;100108.16;;;10.23;82.40
79639;BME280;69114;49.108;8.280;2023-04-28T05:23:47;100106.75;;;10.26;82.19
79639;BME280;69114;49.108;8.280;2023-04-28T05:26:13;100097.94;;;10.33;83.82
79639;BME280;69114;49.108;8.280;2023-04-28T05:28:39;100111.38;;;10.31;81.29
79639;BME280;69114;49.108;8.280;2023-04-28T05:31:05;100100.22;;;10.31;81.67
79639;BME280;69114;49.108;8.280;2023-04-28T05:33:31;100100.91;;;10.36;82.40
79639;BME280;69114;49.108;8.280;2023-04-28T05:35:56;100092.88;;;10.35;83.08
79639;BME280;69114;49.108;8.280;2023-04-28T05:38:22;100094.69;;;10.39;83.66
79639;BME280;69114;49.108;8.280;2023-04-28T05:40:47;100089.38;;;10.29;84.57
79639;BME280;69114;49.108;8.280;2023-04-28T05:43:13;100090.84;;;10.27;85.38
79639;BME280;69114;49.108;8.280;2023-04-28T05:45:38;100104.53;;;10.23;86.92
79639;BME280;69114;49.108;8.280;2023-04-28T05:48:04;100094.13;;;10.29;87.00
79639;BME280;69114;49.108;8.280;2023-04-28T05:50:30;100097.44;;;10.31;87.37
79639;BME280;69114;49.108;8.280;2023-04-28T05:52:56;100096.28;;;10.32;86.68
79639;BME280;69114;49.108;8.280;2023-04-28T05:55:21;100093.50;;;10.32;88.22
79639;BME280;69114;49.108;8.280;2023-04-28T05:57:47;100090.41;;;10.33;87.64
79639;BME280;69114;49.108;8.280;2023-04-28T06:00:13;100089.47;;;10.38;88.06
79639;BME280;69114;49.108;8.280;2023-04-28T06:02:38;100080.97;;;10.43;88.48
79639;BME280;69114;49.108;8.280;2023-04-28T06:05:04;100086.94;;;10.50;89.16
79639;BME280;69114;49.108;8.280;2023-04-28T06:07:29;100092.56;;;10.59;89.82
79639;BME280;69114;49.108;8.280;2023-04-28T06:09:55;100091.22;;;10.56;89.11
79639;BME280;69114;49.108;8.280;2023-04-28T06:12:20;100086.78;;;10.55;89.73
79639;BME280;69114;49.108;8.280;2023-04-28T06:14:45;100088.09;;;10.58;90.15
79639;BME280;69114;49.108;8.280;2023-04-28T06:17:11;100088.91;;;10.58;90.83
79639;BME280;69114;49.108;8.280;2023-04-28T06:19:36;100084.63;;;10.52;91.75
79639;BME280;69114;49.108;8.280;2023-04-28T06:22:01;100079.06;;;10.52;92.91
79639;BME280;69114;49.108;8.280;2023-04-28T06:24:26;100086.94;;;10.50;93.29
79639;BME280;69114;49.108;8.280;2023-04-28T06:26:53;100094.97;;;10.51;93.17
79639;BME280;69114;49.108;8.280;2023-04-28T06:29:18;100088.25;;;10.52;92.95
79639;BME280;69114;49.108;8.280;2023-04-28T06:31:44;100094.63;;;10.53;93.39
79639;BME280;69114;49.108;8.280;2023-04-28T06:34:10;100093.50;;;10.54;93.79
79639;BME280;69114;49.108;8.280;2023-04-28T06:36:35;100093.50;;;10.54;93.66
79639;BME280;69114;49.108;8.280;2023-04-28T06:39:00;100093.38;;;10.59;94.00
79639;BME280;69114;49.108;8.280;2023-04-28T06:41:26;100090.88;;;10.58;94.06
79639;BME280;69114;49.108;8.280;2023-04-28T06:43:53;100091.09;;;10.61;94.26
79639;BME280;69114;49.108;8.280;2023-04-28T06:46:18;100099.09;;;10.63;94.94
79639;BME280;69114;49.108;8.280;2023-04-28T06:48:44;100098.81;;;10.64;94.65
79639;BME280;69114;49.108;8.280;2023-04-28T06:51:09;100100.94;;;10.67;95.31
79639;BME280;69114;49.108;8.280;2023-04-28T06:53:35;100090.31;;;10.69;95.08
79639;BME280;69114;49.108;8.280;2023-04-28T06:56:01;100106.72;;;10.71;95.09
79639;BME280;69114;49.108;8.280;2023-04-28T06:58:27;100104.59;;;10.76;95.13
79639;BME280;69114;49.108;8.280;2023-04-28T07:00:52;100095.47;;;10.85;95.84
79639;BME280;69114;49.108;8.280;2023-04-28T07:03:18;100095.47;;;10.85;95.51
79639;BME280;69114;49.108;8.280;2023-04-28T07:05:43;100114.66;;;10.86;95.10
79639;BME280;69114;49.108;8.280;2023-04-28T07:08:09;100116.00;;;10.89;95.39
79639;BME280;69114;49.108;8.280;2023-04-28T07:10:34;100129.31;;;11.00;94.82
79639;BME280;69114;49.108;8.280;2023-04-28T07:12:59;100135.41;;;11.02;95.30
79639;BME280;69114;49.108;8.280;2023-04-28T07:15:25;100123.59;;;10.97;95.42
79639;BME280;69114;49.108;8.280;2023-04-28T07:17:50;100121.44;;;10.94;95.45
79639;BME280;69114;49.108;8.280;2023-04-28T07:20:16;100121.56;;;10.89;95.95
79639;BME280;69114;49.108;8.280;2023-04-28T07:22:41;100117.00;;;10.93;95.72
79639;BME280;69114;49.108;8.280;2023-04-28T07:25:07;100125.66;;;10.91;95.78
79639;BME280;69114;49.108;8.280;2023-04-28T07:27:32;100121.44;;;10.94;95.78
79639;BME280;69114;49.108;8.280;2023-04-28T07:29:58;100121.78;;;11.01;96.42
79639;BME280;69114;49.108;8.280;2023-04-28T07:32:23;100123.44;;;11.02;96.08
79639;BME280;69114;49.108;8.280;2023-04-28T07:34:48;100117.22;;;11.05;95.91
79639;BME280;69114;49.108;8.280;2023-04-28T07:37:14;100117.22;;;11.05;95.47
79639;BME280;69114;49.108;8.280;2023-04-28T07:39:40;100117.59;;;11.12;95.78
79639;BME280;69114;49.108;8.280;2023-04-28T07:42:05;100118.94;;;11.23;95.59
79639;BME280;69114;49.108;8.280;2023-04-28T07:44:31;100112.22;;;11.24;94.93
79639;BME280;69114;49.108;8.280;2023-04-28T07:46:58;100113.34;;;11.23;95.19
79639;BME280;69114;49.108;8.280;2023-04-28T07:49:25;100117.47;;;11.26;95.39
79639;BME280;69114;49.108;8.280;2023-04-28T07:51:50;100116.53;;;11.31;94.92
79639;BME280;69114;49.108;8.280;2023-04-28T07:54:18;100109.97;;;11.35;95.64
79639;BME280;69114;49.108;8.280;2023-04-28T07:56:44;100122.75;;;11.36;95.29
79639;BME280;69114;49.108;8.280;2023-04-28T07:59:09;100125.22;;;11.38;95.44
79639;BME280;69114;49.108;8.280;2023-04-28T08:01:35;100127.38;;;11.41;95.49
79639;BME280;69114;49.108;8.280;2023-04-28T08:04:00;100133.44;;;11.43;95.52
79639;BME280;69114;49.108;8.280;2023-04-28T08:06:26;100131.97;;;11.45;95.02
79639;BME280;69114;49.108;8.280;2023-04-28T08:08:51;100134.44;;;11.47;94.99
79639;BME280;69114;49.108;8.280;2023-04-28T08:11:16;100127.56;;;11.53;95.16
79639;BME280;69114;49.108;8.280;2023-04-28T08:13:42;100142.22;;;11.59;95.54
79639;BME280;69114;49.108;8.280;2023-04-28T08:16:07;100148.75;;;11.63;94.98
79639;BME280;69114;49.108;8.280;2023-04-28T08:18:32;100143.34;;;11.66;95.27
79639;BME280;69114;49.108;8.280;2023-04-28T08:20:58;100146.00;;;11.71;95.41
79639;BME280;69114;49.108;8.280;2023-04-28T08:23:23;100152.25;;;11.68;95.09
79639;BME280;69114;49.108;8.280;2023-04-28T08:25:52;100141.22;;;11.72;94.77
79639;BME280;69114;49.108;8.280;2023-04-28T08:28:17;100151.13;;;11.78;95.02
79639;BME280;69114;49.108;8.280;2023-04-28T08:30:43;100145.19;;;11.79;95.20
79639;BME280;69114;49.108;8.280;2023-04-28T08:33:08;100147.06;;;11.84;94.86
79639;BME280;69114;49.108;8.280;2023-04-28T08:35:34;100135.72;;;11.89;94.88
79639;BME280;69114;49.108;8.280;2023-04-28T08:37:59;100140.81;;;11.96;95.01
79639;BME280;69114;49.108;8.280;2023-04-28T08:40:25;100143.44;;;12.01;95.18
79639;BME280;69114;49.108;8.280;2023-04-28T08:42:51;100142.16;;;12.07;95.40
79639;BME280;69114;49.108;8.280;2023-04-28T08:45:16;100142.00;;;12.12;94.91
79639;BME280;69114;49.108;8.280;2023-04-28T08:47:42;100138.41;;;12.20;95.35
79639;BME280;69114;49.108;8.280;2023-04-28T08:50:12;100131.16;;;12.28;94.89
79639;BME280;69114;49.108;8.280;2023-04-28T08:52:39;100130.81;;;12.38;94.64
79639;BME280;69114;49.108;8.280;2023-04-28T08:55:10;100128.53;;;12.49;94.72
79639;BME280;69114;49.108;8.280;2023-04-28T08:57:38;100131.97;;;12.63;94.50
79639;BME280;69114;49.108;8.280;2023-04-28T09:02:39;100126.03;;;12.73;94.58
79639;BME280;69114;49.108;8.280;2023-04-28T09:05:12;100124.69;;;12.79;93.69
79639;BME280;69114;49.108;8.280;2023-04-28T09:07:38;100126.78;;;12.91;94.11
79639;BME280;69114;49.108;8.280;2023-04-28T09:10:23;100130.63;;;12.87;93.74
79639;BME280;69114;49.108;8.280;2023-04-28T09:12:54;100126.47;;;13.01;93.66
79639;BME280;69114;49.108;8.280;2023-04-28T09:15:31;100129.25;;;13.01;93.11
79639;BME280;69114;49.108;8.280;2023-04-28T09:17:58;100126.94;;;12.95;93.37
79639;BME280;69114;49.108;8.280;2023-04-28T09:20:26;100118.75;;;12.90;94.62
79639;BME280;69114;49.108;8.280;2023-04-28T09:22:53;100115.59;;;12.91;94.49
79639;BME280;69114;49.108;8.280;2023-04-28T09:25:20;100113.97;;;12.99;94.04
79639;BME280;69114;49.108;8.280;2023-04-28T09:27:47;100103.41;;;13.04;94.54
79639;BME280;69114;49.108;8.280;2023-04-28T09:30:12;100107.88;;;13.05;93.75
79639;BME280;69114;49.108;8.280;2023-04-28T09:32:38;100110.47;;;13.11;94.15
79639;BME280;69114;49.108;8.280;2023-04-28T09:35:04;100108.13;;;13.21;94.31
79639;BME280;69114;49.108;8.280;2023-04-28T09:37:32;100113.53;;;13.35;94.00
79639;BME280;69114;49.108;8.280;2023-04-28T09:42:30;100109.72;;;13.69;92.95
79639;BME280;69114;49.108;8.280;2023-04-28T09:47:35;100107.00;;;13.81;92.69
79639;BME280;69114;49.108;8.280;2023-04-28T09:50:02;100116.66;;;13.93;93.02
79639;BME280;69114;49.108;8.280;2023-04-28T09:52:29;100116.91;;;14.00;91.56
79639;BME280;69114;49.108;8.280;2023-04-28T09:54:55;100118.97;;;14.12;92.62
79639;BME280;69114;49.108;8.280;2023-04-28T09:57:22;100119.84;;;14.03;92.82
79639;BME280;69114;49.108;8.280;2023-04-28T09:59:49;100124.09;;;14.09;92.48
79639;BME280;69114;49.108;8.280;2023-04-28T10:02:16;100120.25;;;14.14;92.52
79639;BME280;69114;49.108;8.280;2023-04-28T10:04:43;100117.53;;;14.26;92.83
79639;BME280;69114;49.108;8.280;2023-04-28T10:07:11;100116.66;;;14.34;92.58
79639;BME280;69114;49.108;8.280;2023-04-28T10:09:38;100114.06;;;14.29;92.44
79639;BME280;69114;49.108;8.280;2023-04-28T10:12:04;100108.47;;;14.29;92.16
79639;BME280;69114;49.108;8.280;2023-04-28T10:14:31;100116.22;;;14.24;92.32
79639;BME280;69114;49.108;8.280;2023-04-28T10:16:57;100129.91;;;14.25;93.53
79639;BME280;69114;49.108;8.280;2023-04-28T10:19:23;100126.22;;;14.13;92.36
79639;BME280;69114;49.108;8.280;2023-04-28T10:21:59;100118.16;;;14.11;93.10
79639;BME280;69114;49.108;8.280;2023-04-28T10:24:28;100110.94;;;14.10;93.67
79639;BME280;69114;49.108;8.280;2023-04-28T10:27:02;100119.34;;;14.10;93.02
79639;BME280;69114;49.108;8.280;2023-04-28T10:29:32;100126.34;;;14.16;92.97
79639;BME280;69114;49.108;8.280;2023-04-28T10:32:17;100138.44;;;14.29;92.39
79639;BME280;69114;49.108;8.280;2023-04-28T10:34:43;100146.44;;;14.39;93.78
79639;BME280;69114;49.108;8.280;2023-04-28T10:37:08;100145.63;;;14.39;93.74
79639;BME280;69114;49.108;8.280;2023-04-28T10:39:34;100140.97;;;14.43;92.88
79639;BME280;69114;49.108;8.280;2023-04-28T10:41:59;100141.31;;;14.62;92.91
79639;BME280;69114;49.108;8.280;2023-04-28T10:47:01;100130.59;;;14.64;92.40
79639;BME280;69114;49.108;8.280;2023-04-28T10:55:31;100141.44;;;14.45;93.58
79639;BME280;69114;49.108;8.280;2023-04-28T11:00:41;100134.28;;;14.35;94.10
79639;BME280;69114;49.108;8.280;2023-04-28T11:03:07;100128.53;;;14.31;95.07
79639;BME280;69114;49.108;8.280;2023-04-28T11:05:33;100124.31;;;14.25;94.50
79639;BME280;69114;49.108;8.280;2023-04-28T11:08:30;100117.91;;;14.25;94.84
79639;BME280;69114;49.108;8.280;2023-04-28T11:11:13;100117.06;;;14.24;94.48
79639;BME280;69114;49.108;8.280;2023-04-28T11:13:39;100114.81;;;14.39;94.96
79639;BME280;69114;49.108;8.280;2023-04-28T11:16:05;100111.63;;;14.49;94.17
79639;BME280;69114;49.108;8.280;2023-04-28T11:19:00;100117.00;;;14.54;93.86
79639;BME280;69114;49.108;8.280;2023-04-28T11:21:29;100122.59;;;14.54;93.99
79639;BME280;69114;49.108;8.280;2023-04-28T11:23:56;100113.84;;;14.55;94.32
79639;BME280;69114;49.108;8.280;2023-04-28T11:26:22;100110.16;;;14.64;94.40
79639;BME280;69114;49.108;8.280;2023-04-28T11:31:14;100110.75;;;14.69;93.98
79639;BME280;69114;49.108;8.280;2023-04-28T11:33:52;100097.91;;;14.80;93.81
79639;BME280;69114;49.108;8.280;2023-04-28T11:36:22;100099.72;;;14.97;93.90
79639;BME280;69114;49.108;8.280;2023-04-28T11:38:48;100094.13;;;14.97;92.76
79639;BME280;69114;49.108;8.280;2023-04-28T11:41:13;100105.78;;;14.87;93.73
79639;BME280;69114;49.108;8.280;2023-04-28T11:43:39;100105.44;;;14.89;92.94
79639;BME280;69114;49.108;8.280;2023-04-28T11:46:06;100091.66;;;14.96;92.35
79639;BME280;69114;49.108;8.280;2023-04-28T11:48:31;100094.03;;;15.30;93.05
79639;BME280;69114;49.108;8.280;2023-04-28T11:50:57;100095.78;;;15.47;90.72
79639;BME280;69114;49.108;8.280;2023-04-28T11:53:42;100089.81;;;15.85;90.85
79639;BME280;69114;49.108;8.280;2023-04-28T11:56:08;100088.28;;;16.28;88.59
79639;BME280;69114;49.108;8.280;2023-04-28T11:58:34;100079.69;;;16.21;89.68
79639;BME280;69114;49.108;8.280;2023-04-28T12:01:10;100074.91;;;16.37;87.96
79639;BME280;69114;49.108;8.280;2023-04-28T12:03:46;100083.84;;;16.27;88.78
79639;BME280;69114;49.108;8.280;2023-04-28T12:06:11;100083.19;;;16.18;89.70
79639;BME280;69114;49.108;8.280;2023-04-28T12:08:41;100083.13;;;15.90;89.68
79639;BME280;69114;49.108;8.280;2023-04-28T12:11:10;100088.41;;;15.92;89.42
79639;BME280;69114;49.108;8.280;2023-04-28T12:13:37;100096.59;;;15.97;90.06
79639;BME280;69114;49.108;8.280;2023-04-28T12:16:04;100101.66;;;15.79;89.24
79639;BME280;69114;49.108;8.280;2023-04-28T12:18:33;100099.22;;;15.65;91.61
79639;BME280;69114;49.108;8.280;2023-04-28T12:20:59;100098.28;;;15.73;91.88
79639;BME280;69114;49.108;8.280;2023-04-28T12:23:31;100096.03;;;15.54;90.06
79639;BME280;69114;49.108;8.280;2023-04-28T12:25:58;100098.97;;;15.58;90.27
79639;BME280;69114;49.108;8.280;2023-04-28T12:28:23;100099.28;;;15.56;89.93
79639;BME280;69114;49.108;8.280;2023-04-28T12:31:04;100115.81;;;15.70;90.69
79639;BME280;69114;49.108;8.280;2023-04-28T12:33:31;100109.97;;;15.63;91.34
79639;BME280;69114;49.108;8.280;2023-04-28T12:36:02;100096.72;;;15.51;90.38
79639;BME280;69114;49.108;8.280;2023-04-28T12:38:28;100096.50;;;15.56;91.72
79639;BME280;69114;49.108;8.280;2023-04-28T12:40:53;100091.72;;;15.69;92.12
79639;BME280;69114;49.108;8.280;2023-04-28T12:43:19;100105.31;;;15.67;89.44
79639;BME280;69114;49.108;8.280;2023-04-28T12:45:48;100107.84;;;15.84;90.37
79639;BME280;69114;49.108;8.280;2023-04-28T12:48:13;100103.16;;;16.01;88.45
79639;BME280;69114;49.108;8.280;2023-04-28T12:50:38;100098.97;;;16.23;87.70
79639;BME280;69114;49.108;8.280;2023-04-28T12:53:04;100102.22;;;15.97;87.95
79639;BME280;69114;49.108;8.280;2023-04-28T12:55:30;100101.13;;;16.42;88.77
79639;BME280;69114;49.108;8.280;2023-04-28T12:57:56;100101.00;;;16.78;85.72
79639;BME280;69114;49.108;8.280;2023-04-28T13:00:21;100095.78;;;16.93;86.51
79639;BME280;69114;49.108;8.280;2023-04-28T13:02:49;100090.00;;;16.45;85.63
79639;BME280;69114;49.108;8.280;2023-04-28T13:05:14;100085.31;;;16.77;85.43
79639;BME280;69114;49.108;8.280;2023-04-28T13:07:40;100084.84;;;16.75;85.45